sensor_id;sensor_type;location;lat;lon;timestamp;temperature;humidity
26589;DHT22;14235;48.532;8.722;2022-07-03T00:10:11;15.70;99.90
26589;DHT22;14235;48.532;8.722;2022-07-03T00:12:36;15.60;99.90
26589;DHT22;14235;48.532;8.722;2022-07-03T00:15:02;15.70;99.90
26589;DHT22;14235;48.532;8.722;2022-07-03T00:17:29;15.60;99.90
26589;DHT22;14235;48.532;8.722;2022-07-03T00:19:54;15.40;99.90
26589;DHT22;14235;48.532;8.722;2022-07-03T00:22:21;15.70;99.90
26589;DHT22;14235;48.532;8.722;2022-07-03T00:24:54;15.80;99.90
26589;DHT22;14235;48.532;8.722;2022-07-03T00:27:24;15.80;99.90
26589;DHT22;14235;48.532;8.722;2022-07-03T00:29:50;15.50;99.90
26589;DHT22;14235;48.532;8.722;2022-07-03T00:32:28;15.60;99.90
26589;DHT22;14235;48.532;8.722;2022-07-03T00:34:55;15.50;99.90
26589;DHT22;14235;48.532;8.722;2022-07-03T00:37:22;15.50;99.90
26589;DHT22;14235;48.532;8.722;2022-07-03T00:39:48;15.30;99.90
26589;DHT22;14235;48.532;8.722;2022-07-03T00:42:14;15.40;99.90
26589;DHT22;14235;48.532;8.722;2022-07-03T00:44:45;15.20;99.90
26589;DHT22;14235;48.532;8.722;2022-07-03T00:47:15;15.30;99.90
26589;DHT22;14235;48.532;8.722;2022-07-03T00:49:44;15.20;99.90
26589;DHT22;14235;48.532;8.722;2022-07-03T00:54:42;14.90;99.90
26589;DHT22;14235;48.532;8.722;2022-07-03T00:57:14;15.00;99.90
26589;DHT22;14235;48.532;8.722;2022-07-03T00:59:40;15.20;99.90
26589;DHT22;14235;48.532;8.722;2022-07-03T01:02:06;14.90;99.90
26589;DHT22;14235;48.532;8.722;2022-07-03T01:04:36;14.80;99.90
26589;DHT22;14235;48.532;8.722;2022-07-03T01:07:47;14.70;99.90
26589;DHT22;14235;48.532;8.722;2022-07-03T01:11:18;14.70;99.90
26589;DHT22;14235;48.532;8.722;2022-07-03T01:18:31;14.40;99.90
26589;DHT22;14235;48.532;8.722;2022-07-03T01:21:07;14.70;99.90
26589;DHT22;14235;48.532;8.722;2022-07-03T01:26:41;14.60;99.90
26589;DHT22;14235;48.532;8.722;2022-07-03T01:29:17;14.60;99.90
26589;DHT22;14235;48.532;8.722;2022-07-03T01:31:46;14.70;99.90
26589;DHT22;14235;48.532;8.722;2022-07-03T01:34:13;14.70;99.90
26589;DHT22;14235;48.532;8.722;2022-07-03T01:36:43;14.60;99.90
26589;DHT22;14235;48.532;8.722;2022-07-03T01:39:10;14.60;99.90
26589;DHT22;14235;48.532;8.722;2022-07-03T01:41:37;14.70;99.90
26589;DHT22;14235;48.532;8.722;2022-07-03T01:44:03;14.60;99.90
26589;DHT22;14235;48.532;8.722;2022-07-03T01:46:31;14.60;99.90
26589;DHT22;14235;48.532;8.722;2022-07-03T01:48:58;14.40;99.90
26589;DHT22;14235;48.532;8.722;2022-07-03T01:51:26;14.40;99.90
26589;DHT22;14235;48.532;8.722;2022-07-03T01:56:20;14.00;99.90
26589;DHT22;14235;48.532;8.722;2022-07-03T01:58:46;14.00;99.90
26589;DHT22;14235;48.532;8.722;2022-07-03T02:03:54;13.80;99.90
26589;DHT22;14235;48.532;8.722;2022-07-03T02:09:03;14.10;99.90
26589;DHT22;14235;48.532;8.722;2022-07-03T02:11:34;14.20;99.90
26589;DHT22;14235;48.532;8.722;2022-07-03T02:16:26;14.00;99.90
26589;DHT22;14235;48.532;8.722;2022-07-03T02:19:05;13.90;99.90
26589;DHT22;14235;48.532;8.722;2022-07-03T02:27:07;13.60;99.90
26589;DHT22;14235;48.532;8.722;2022-07-03T02:30:03;13.80;99.90
26589;DHT22;14235;48.532;8.722;2022-07-03T02:32:32;13.80;99.90
26589;DHT22;14235;48.532;8.722;2022-07-03T02:35:07;13.90;99.90
26589;DHT22;14235;48.532;8.722;2022-07-03T02:37:52;13.90;99.90
26589;DHT22;14235;48.532;8.722;2022-07-03T02:43:19;13.90;99.90
26589;DHT22;14235;48.532;8.722;2022-07-03T02:48:51;13.60;99.90
26589;DHT22;14235;48.532;8.722;2022-07-03T02:56:27;13.60;99.90
26589;DHT22;14235;48.532;8.722;2022-07-03T03:06:31;13.20;99.90
26589;DHT22;14235;48.532;8.722;2022-07-03T03:09:03;13.30;99.90
26589;DHT22;14235;48.532;8.722;2022-07-03T03:11:41;13.30;99.90
26589;DHT22;14235;48.532;8.722;2022-07-03T03:14:15;13.30;99.90
26589;DHT22;14235;48.532;8.722;2022-07-03T03:16:52;13.30;99.90
26589;DHT22;14235;48.532;8.722;2022-07-03T03:19:22;13.50;99.90
26589;DHT22;14235;48.532;8.722;2022-07-03T03:22:06;13.30;99.90
26589;DHT22;14235;48.532;8.722;2022-07-03T03:24:35;13.40;99.90
26589;DHT22;14235;48.532;8.722;2022-07-03T03:27:01;13.30;99.90
26589;DHT22;14235;48.532;8.722;2022-07-03T03:29:27;13.30;99.90
26589;DHT22;14235;48.532;8.722;2022-07-03T03:31:53;13.20;99.90
26589;DHT22;14235;48.532;8.722;2022-07-03T03:34:20;13.30;99.90
26589;DHT22;14235;48.532;8.722;2022-07-03T03:36:46;13.10;99.90
26589;DHT22;14235;48.532;8.722;2022-07-03T03:39:12;13.10;99.90
26589;DHT22;14235;48.532;8.722;2022-07-03T03:41:38;13.20;99.90
26589;DHT22;14235;48.532;8.722;2022-07-03T03:44:04;13.10;99.90
26589;DHT22;14235;48.532;8.722;2022-07-03T03:46:29;13.10;99.90
26589;DHT22;14235;48.532;8.722;2022-07-03T03:48:56;13.00;99.90
26589;DHT22;14235;48.532;8.722;2022-07-03T03:51:21;13.10;99.90
26589;DHT22;14235;48.532;8.722;2022-07-03T03:53:47;13.00;99.90
26589;DHT22;14235;48.532;8.722;2022-07-03T03:56:13;12.90;99.90
26589;DHT22;14235;48.532;8.722;2022-07-03T03:58:41;13.10;99.90
26589;DHT22;14235;48.532;8.722;2022-07-03T04:01:07;12.90;99.90
26589;DHT22;14235;48.532;8.722;2022-07-03T04:03:33;12.80;99.90
26589;DHT22;14235;48.532;8.722;2022-07-03T04:06:00;12.90;99.90
26589;DHT22;14235;48.532;8.722;2022-07-03T04:08:26;13.00;99.90
26589;DHT22;14235;48.532;8.722;2022-07-03T04:10:52;13.00;99.90
26589;DHT22;14235;48.532;8.722;2022-07-03T04:13:18;13.00;99.90
26589;DHT22;14235;48.532;8.722;2022-07-03T04:15:45;13.10;99.90
26589;DHT22;14235;48.532;8.722;2022-07-03T04:18:10;13.00;99.90
26589;DHT22;14235;48.532;8.722;2022-07-03T04:20:36;12.90;99.90
26589;DHT22;14235;48.532;8.722;2022-07-03T04:23:02;12.90;99.90
26589;DHT22;14235;48.532;8.722;2022-07-03T04:25:27;12.80;99.90
26589;DHT22;14235;48.532;8.722;2022-07-03T04:27:53;13.00;99.90
26589;DHT22;14235;48.532;8.722;2022-07-03T04:30:19;13.20;99.90
26589;DHT22;14235;48.532;8.722;2022-07-03T04:32:45;13.00;99.90
26589;DHT22;14235;48.532;8.722;2022-07-03T04:35:11;12.80;99.90
26589;DHT22;14235;48.532;8.722;2022-07-03T04:37:37;12.80;99.90
26589;DHT22;14235;48.532;8.722;2022-07-03T04:40:03;12.90;99.90
26589;DHT22;14235;48.532;8.722;2022-07-03T04:42:29;12.80;99.90
26589;DHT22;14235;48.532;8.722;2022-07-03T04:44:54;12.80;99.90
26589;DHT22;14235;48.532;8.722;2022-07-03T04:47:20;12.90;99.90
26589;DHT22;14235;48.532;8.722;2022-07-03T04:49:46;12.90;99.90
26589;DHT22;14235;48.532;8.722;2022-07-03T04:52:11;13.10;99.90
26589;DHT22;14235;48.532;8.722;2022-07-03T04:54:37;12.90;99.90
26589;DHT22;14235;48.532;8.722;2022-07-03T04:57:03;12.90;99.90
26589;DHT22;14235;48.532;8.722;2022-07-03T04:59:29;12.90;99.90
26589;DHT22;14235;48.532;8.722;2022-07-03T05:01:55;13.00;99.90
26589;DHT22;14235;48.532;8.722;2022-07-03T05:04:21;12.90;99.90
26589;DHT22;14235;48.532;8.722;2022-07-03T05:06:47;12.70;99.90
26589;DHT22;14235;48.532;8.722;2022-07-03T05:09:13;12.80;99.90
26589;DHT22;14235;48.532;8.722;2022-07-03T05:11:39;12.80;99.90
26589;DHT22;14235;48.532;8.722;2022-07-03T05:14:07;12.90;99.90
26589;DHT22;14235;48.532;8.722;2022-07-03T05:16:33;13.10;99.90
26589;DHT22;14235;48.532;8.722;2022-07-03T05:18:59;13.10;99.90
26589;DHT22;14235;48.532;8.722;2022-07-03T05:21:24;13.10;99.90
26589;DHT22;14235;48.532;8.722;2022-07-03T05:23:50;13.40;99.90
26589;DHT22;14235;48.532;8.722;2022-07-03T05:26:16;13.40;99.90
26589;DHT22;14235;48.532;8.722;2022-07-03T05:28:42;13.50;99.90
26589;DHT22;14235;48.532;8.722;2022-07-03T05:31:07;13.80;99.90
26589;DHT22;14235;48.532;8.722;2022-07-03T05:33:33;13.80;99.90
26589;DHT22;14235;48.532;8.722;2022-07-03T05:35:59;14.00;99.90
26589;DHT22;14235;48.532;8.722;2022-07-03T05:38:25;14.10;99.90
26589;DHT22;14235;48.532;8.722;2022-07-03T05:41:09;14.10;99.90
26589;DHT22;14235;48.532;8.722;2022-07-03T05:43:35;14.60;99.90
26589;DHT22;14235;48.532;8.722;2022-07-03T05:46:00;14.40;99.90
26589;DHT22;14235;48.532;8.722;2022-07-03T05:48:26;14.30;99.90
26589;DHT22;14235;48.532;8.722;2022-07-03T05:50:52;14.40;99.90
26589;DHT22;14235;48.532;8.722;2022-07-03T05:53:18;14.50;99.90
26589;DHT22;14235;48.532;8.722;2022-07-03T05:55:43;15.00;99.90
26589;DHT22;14235;48.532;8.722;2022-07-03T05:58:09;14.90;99.90
26589;DHT22;14235;48.532;8.722;2022-07-03T06:00:35;14.90;99.90
26589;DHT22;14235;48.532;8.722;2022-07-03T06:03:00;14.90;99.90
26589;DHT22;14235;48.532;8.722;2022-07-03T06:05:29;15.00;99.90
26589;DHT22;14235;48.532;8.722;2022-07-03T06:07:54;15.20;99.90
26589;DHT22;14235;48.532;8.722;2022-07-03T06:10:20;15.50;99.90
26589;DHT22;14235;48.532;8.722;2022-07-03T06:12:46;15.40;99.90
26589;DHT22;14235;48.532;8.722;2022-07-03T06:15:11;15.50;99.90
26589;DHT22;14235;48.532;8.722;2022-07-03T06:17:37;15.50;99.90
26589;DHT22;14235;48.532;8.722;2022-07-03T06:20:06;15.60;99.90
26589;DHT22;14235;48.532;8.722;2022-07-03T06:22:32;15.60;99.90
26589;DHT22;14235;48.532;8.722;2022-07-03T06:24:59;15.70;99.90
26589;DHT22;14235;48.532;8.722;2022-07-03T06:27:25;15.80;99.90
26589;DHT22;14235;48.532;8.722;2022-07-03T06:29:50;16.00;99.90
26589;DHT22;14235;48.532;8.722;2022-07-03T06:32:16;16.00;99.90
26589;DHT22;14235;48.532;8.722;2022-07-03T06:34:42;16.30;99.90
26589;DHT22;14235;48.532;8.722;2022-07-03T06:37:11;16.10;99.90
26589;DHT22;14235;48.532;8.722;2022-07-03T06:39:37;16.30;99.90
26589;DHT22;14235;48.532;8.722;2022-07-03T06:42:03;16.50;99.90
26589;DHT22;14235;48.532;8.722;2022-07-03T06:44:28;16.50;99.90
26589;DHT22;14235;48.532;8.722;2022-07-03T06:46:54;16.70;99.90
26589;DHT22;14235;48.532;8.722;2022-07-03T06:49:20;16.70;99.90
26589;DHT22;14235;48.532;8.722;2022-07-03T06:51:46;16.80;99.90
26589;DHT22;14235;48.532;8.722;2022-07-03T06:54:11;16.90;99.90
26589;DHT22;14235;48.532;8.722;2022-07-03T06:56:37;17.10;99.90
26589;DHT22;14235;48.532;8.722;2022-07-03T06:59:03;17.30;99.90
26589;DHT22;14235;48.532;8.722;2022-07-03T07:01:29;17.40;99.90
26589;DHT22;14235;48.532;8.722;2022-07-03T07:03:54;17.60;99.90
26589;DHT22;14235;48.532;8.722;2022-07-03T07:06:20;17.50;99.90
26589;DHT22;14235;48.532;8.722;2022-07-03T07:08:46;17.80;99.90
26589;DHT22;14235;48.532;8.722;2022-07-03T07:11:12;17.70;99.90
26589;DHT22;14235;48.532;8.722;2022-07-03T07:13:37;18.00;99.90
26589;DHT22;14235;48.532;8.722;2022-07-03T07:16:03;18.30;99.90
26589;DHT22;14235;48.532;8.722;2022-07-03T07:18:29;18.20;99.90
26589;DHT22;14235;48.532;8.722;2022-07-03T07:20:54;18.50;99.90
26589;DHT22;14235;48.532;8.722;2022-07-03T07:23:20;18.70;99.90
26589;DHT22;14235;48.532;8.722;2022-07-03T07:25:45;18.90;99.90
26589;DHT22;14235;48.532;8.722;2022-07-03T07:28:11;19.40;99.90
26589;DHT22;14235;48.532;8.722;2022-07-03T07:30:37;19.50;99.90
26589;DHT22;14235;48.532;8.722;2022-07-03T07:33:05;19.70;99.90
26589;DHT22;14235;48.532;8.722;2022-07-03T07:35:31;19.80;99.90
26589;DHT22;14235;48.532;8.722;2022-07-03T07:37:56;20.00;99.90
26589;DHT22;14235;48.532;8.722;2022-07-03T07:42:48;20.20;99.90
26589;DHT22;14235;48.532;8.722;2022-07-03T07:45:13;20.30;99.90
26589;DHT22;14235;48.532;8.722;2022-07-03T07:47:39;20.40;99.90
26589;DHT22;14235;48.532;8.722;2022-07-03T07:50:05;20.80;99.90
26589;DHT22;14235;48.532;8.722;2022-07-03T07:52:31;21.10;99.90
26589;DHT22;14235;48.532;8.722;2022-07-03T07:54:57;21.50;99.90
26589;DHT22;14235;48.532;8.722;2022-07-03T07:57:22;21.30;99.90
26589;DHT22;14235;48.532;8.722;2022-07-03T07:59:48;21.40;99.90
26589;DHT22;14235;48.532;8.722;2022-07-03T08:02:13;21.40;99.90
26589;DHT22;14235;48.532;8.722;2022-07-03T08:04:57;21.60;99.00
26589;DHT22;14235;48.532;8.722;2022-07-03T08:07:59;22.10;97.80
26589;DHT22;14235;48.532;8.722;2022-07-03T08:10:24;21.90;96.30
26589;DHT22;14235;48.532;8.722;2022-07-03T08:12:50;22.00;96.60
26589;DHT22;14235;48.532;8.722;2022-07-03T08:15:15;22.30;93.90
26589;DHT22;14235;48.532;8.722;2022-07-03T08:17:41;22.30;94.80
26589;DHT22;14235;48.532;8.722;2022-07-03T08:20:07;22.40;93.50
26589;DHT22;14235;48.532;8.722;2022-07-03T08:22:33;22.40;93.30
26589;DHT22;14235;48.532;8.722;2022-07-03T08:24:58;22.50;93.20
26589;DHT22;14235;48.532;8.722;2022-07-03T08:27:24;22.60;92.60
26589;DHT22;14235;48.532;8.722;2022-07-03T08:29:49;22.70;93.20
26589;DHT22;14235;48.532;8.722;2022-07-03T08:32:15;22.60;93.60
26589;DHT22;14235;48.532;8.722;2022-07-03T08:34:40;22.70;95.40
26589;DHT22;14235;48.532;8.722;2022-07-03T08:37:06;22.80;92.60
26589;DHT22;14235;48.532;8.722;2022-07-03T08:39:31;22.90;93.30
26589;DHT22;14235;48.532;8.722;2022-07-03T08:41:58;22.90;97.50
26589;DHT22;14235;48.532;8.722;2022-07-03T08:44:24;23.20;97.00
26589;DHT22;14235;48.532;8.722;2022-07-03T08:46:51;23.10;97.80
26589;DHT22;14235;48.532;8.722;2022-07-03T08:49:18;23.10;96.50
26589;DHT22;14235;48.532;8.722;2022-07-03T08:51:45;23.10;95.20
26589;DHT22;14235;48.532;8.722;2022-07-03T08:54:11;23.20;93.80
26589;DHT22;14235;48.532;8.722;2022-07-03T08:56:37;23.30;95.00
26589;DHT22;14235;48.532;8.722;2022-07-03T08:59:05;23.30;95.80
26589;DHT22;14235;48.532;8.722;2022-07-03T09:01:33;23.30;92.90
26589;DHT22;14235;48.532;8.722;2022-07-03T09:04:00;23.30;92.50
26589;DHT22;14235;48.532;8.722;2022-07-03T09:06:26;23.30;93.40
26589;DHT22;14235;48.532;8.722;2022-07-03T09:09:00;23.30;96.40
26589;DHT22;14235;48.532;8.722;2022-07-03T09:13:54;23.20;95.70
26589;DHT22;14235;48.532;8.722;2022-07-03T09:16:20;23.30;95.30
26589;DHT22;14235;48.532;8.722;2022-07-03T09:18:45;23.50;94.50
26589;DHT22;14235;48.532;8.722;2022-07-03T09:21:11;23.60;93.40
26589;DHT22;14235;48.532;8.722;2022-07-03T09:23:40;23.70;91.50
26589;DHT22;14235;48.532;8.722;2022-07-03T09:26:06;24.00;92.30
26589;DHT22;14235;48.532;8.722;2022-07-03T09:31:14;23.80;94.50
26589;DHT22;14235;48.532;8.722;2022-07-03T09:36:47;23.90;90.90
26589;DHT22;14235;48.532;8.722;2022-07-03T09:39:27;23.80;91.10
26589;DHT22;14235;48.532;8.722;2022-07-03T09:42:07;23.90;91.10
26589;DHT22;14235;48.532;8.722;2022-07-03T09:44:42;24.00;92.00
26589;DHT22;14235;48.532;8.722;2022-07-03T09:49:55;24.30;90.80
26589;DHT22;14235;48.532;8.722;2022-07-03T09:52:28;24.40;88.20
26589;DHT22;14235;48.532;8.722;2022-07-03T09:55:12;24.40;89.10
26589;DHT22;14235;48.532;8.722;2022-07-03T10:00:23;24.80;87.00
26589;DHT22;14235;48.532;8.722;2022-07-03T10:02:58;24.80;88.60
26589;DHT22;14235;48.532;8.722;2022-07-03T10:05:36;24.80;88.60
26589;DHT22;14235;48.532;8.722;2022-07-03T10:08:10;24.70;83.20
26589;DHT22;14235;48.532;8.722;2022-07-03T10:10:42;24.60;84.20
26589;DHT22;14235;48.532;8.722;2022-07-03T10:13:08;24.70;85.00
26589;DHT22;14235;48.532;8.722;2022-07-03T10:15:36;24.70;82.40
26589;DHT22;14235;48.532;8.722;2022-07-03T10:18:06;24.90;83.00
26589;DHT22;14235;48.532;8.722;2022-07-03T10:20:38;24.90;82.20
26589;DHT22;14235;48.532;8.722;2022-07-03T10:23:04;25.00;78.90
26589;DHT22;14235;48.532;8.722;2022-07-03T10:25:30;24.90;82.90
26589;DHT22;14235;48.532;8.722;2022-07-03T10:27:57;25.00;81.40
26589;DHT22;14235;48.532;8.722;2022-07-03T10:30:24;25.10;79.80
26589;DHT22;14235;48.532;8.722;2022-07-03T10:32:52;25.00;79.90
26589;DHT22;14235;48.532;8.722;2022-07-03T10:36:10;25.20;76.90
26589;DHT22;14235;48.532;8.722;2022-07-03T10:38:41;25.00;76.00
26589;DHT22;14235;48.532;8.722;2022-07-03T10:44:16;25.20;76.90
26589;DHT22;14235;48.532;8.722;2022-07-03T10:47:01;25.50;76.70
26589;DHT22;14235;48.532;8.722;2022-07-03T10:49:27;25.50;76.50
26589;DHT22;14235;48.532;8.722;2022-07-03T10:54:22;25.70;71.80
26589;DHT22;14235;48.532;8.722;2022-07-03T11:02:21;26.30;93.30
26589;DHT22;14235;48.532;8.722;2022-07-03T11:13:16;26.10;92.90
26589;DHT22;14235;48.532;8.722;2022-07-03T11:25:47;26.20;91.20
26589;DHT22;14235;48.532;8.722;2022-07-03T12:21:09;28.00;91.00
26589;DHT22;14235;48.532;8.722;2022-07-03T12:23:51;28.10;79.10
26589;DHT22;14235;48.532;8.722;2022-07-03T12:26:30;28.10;80.00
26589;DHT22;14235;48.532;8.722;2022-07-03T12:29:01;28.40;77.40
26589;DHT22;14235;48.532;8.722;2022-07-03T12:31:27;28.50;73.90
26589;DHT22;14235;48.532;8.722;2022-07-03T12:33:58;28.60;71.50
26589;DHT22;14235;48.532;8.722;2022-07-03T12:36:24;28.50;67.00
26589;DHT22;14235;48.532;8.722;2022-07-03T12:38:54;28.40;69.20
26589;DHT22;14235;48.532;8.722;2022-07-03T12:41:21;28.50;68.70
26589;DHT22;14235;48.532;8.722;2022-07-03T12:43:48;28.40;66.90
26589;DHT22;14235;48.532;8.722;2022-07-03T12:46:34;28.50;69.50
26589;DHT22;14235;48.532;8.722;2022-07-03T12:49:07;28.60;70.60
26589;DHT22;14235;48.532;8.722;2022-07-03T12:54:28;28.80;70.30
26589;DHT22;14235;48.532;8.722;2022-07-03T12:57:09;28.80;69.90
26589;DHT22;14235;48.532;8.722;2022-07-03T13:00:07;28.90;69.60
26589;DHT22;14235;48.532;8.722;2022-07-03T13:05:00;29.10;72.70
26589;DHT22;14235;48.532;8.722;2022-07-03T13:07:32;29.10;75.30
26589;DHT22;14235;48.532;8.722;2022-07-03T13:10:01;29.20;71.10
26589;DHT22;14235;48.532;8.722;2022-07-03T13:12:27;29.20;73.90
26589;DHT22;14235;48.532;8.722;2022-07-03T13:14:59;29.30;72.10
26589;DHT22;14235;48.532;8.722;2022-07-03T13:22:35;29.10;87.40
26589;DHT22;14235;48.532;8.722;2022-07-03T13:25:01;29.30;73.20
26589;DHT22;14235;48.532;8.722;2022-07-03T13:27:26;29.30;75.60
26589;DHT22;14235;48.532;8.722;2022-07-03T13:37:10;29.50;79.60
26589;DHT22;14235;48.532;8.722;2022-07-03T13:39:35;29.70;70.30
26589;DHT22;14235;48.532;8.722;2022-07-03T13:42:01;29.80;66.60
26589;DHT22;14235;48.532;8.722;2022-07-03T13:44:29;29.90;67.50
26589;DHT22;14235;48.532;8.722;2022-07-03T13:46:55;29.90;68.20
26589;DHT22;14235;48.532;8.722;2022-07-03T13:49:20;29.90;65.30
26589;DHT22;14235;48.532;8.722;2022-07-03T13:51:46;30.00;68.60
26589;DHT22;14235;48.532;8.722;2022-07-03T13:54:12;30.10;66.30
26589;DHT22;14235;48.532;8.722;2022-07-03T13:59:03;30.10;59.30
26589;DHT22;14235;48.532;8.722;2022-07-03T14:01:29;30.20;61.20
26589;DHT22;14235;48.532;8.722;2022-07-03T14:03:54;30.30;58.90
26589;DHT22;14235;48.532;8.722;2022-07-03T14:06:20;30.40;63.20
26589;DHT22;14235;48.532;8.722;2022-07-03T14:08:46;30.40;61.30
26589;DHT22;14235;48.532;8.722;2022-07-03T14:11:11;30.40;60.80
26589;DHT22;14235;48.532;8.722;2022-07-03T14:13:37;30.60;59.80
26589;DHT22;14235;48.532;8.722;2022-07-03T14:16:02;30.60;59.40
26589;DHT22;14235;48.532;8.722;2022-07-03T14:18:28;30.70;58.10
26589;DHT22;14235;48.532;8.722;2022-07-03T14:20:54;30.80;57.50
26589;DHT22;14235;48.532;8.722;2022-07-03T14:23:19;30.90;58.40
26589;DHT22;14235;48.532;8.722;2022-07-03T14:25:45;31.00;58.20
26589;DHT22;14235;48.532;8.722;2022-07-03T14:28:10;31.10;56.50
26589;DHT22;14235;48.532;8.722;2022-07-03T14:30:54;31.10;60.30
26589;DHT22;14235;48.532;8.722;2022-07-03T14:36:04;31.40;38.80
26589;DHT22;14235;48.532;8.722;2022-07-03T14:38:30;31.60;38.10
26589;DHT22;14235;48.532;8.722;2022-07-03T14:40:55;32.10;37.40
26589;DHT22;14235;48.532;8.722;2022-07-03T14:43:21;33.00;35.70
26589;DHT22;14235;48.532;8.722;2022-07-03T14:45:47;32.90;36.40
26589;DHT22;14235;48.532;8.722;2022-07-03T14:48:12;33.30;37.10
26589;DHT22;14235;48.532;8.722;2022-07-03T14:50:38;34.30;34.40
26589;DHT22;14235;48.532;8.722;2022-07-03T14:53:05;34.70;33.60
26589;DHT22;14235;48.532;8.722;2022-07-03T14:55:36;34.90;34.30
26589;DHT22;14235;48.532;8.722;2022-07-03T15:00:56;35.90;32.30
26589;DHT22;14235;48.532;8.722;2022-07-03T15:03:30;36.50;31.00
26589;DHT22;14235;48.532;8.722;2022-07-03T15:06:01;36.90;32.40
26589;DHT22;14235;48.532;8.722;2022-07-03T15:11:06;38.30;33.30
26589;DHT22;14235;48.532;8.722;2022-07-03T15:13:33;38.80;32.00
26589;DHT22;14235;48.532;8.722;2022-07-03T15:15:59;38.90;30.00
26589;DHT22;14235;48.532;8.722;2022-07-03T15:18:27;38.70;29.80
26589;DHT22;14235;48.532;8.722;2022-07-03T15:20:53;39.40;35.70
26589;DHT22;14235;48.532;8.722;2022-07-03T15:23:20;39.60;32.50
26589;DHT22;14235;48.532;8.722;2022-07-03T15:25:47;39.50;36.70
26589;DHT22;14235;48.532;8.722;2022-07-03T15:28:14;40.50;35.20
26589;DHT22;14235;48.532;8.722;2022-07-03T15:30:49;40.50;36.60
26589;DHT22;14235;48.532;8.722;2022-07-03T15:53:56;45.30;24.20
26589;DHT22;14235;48.532;8.722;2022-07-03T15:56:25;43.90;23.10
26589;DHT22;14235;48.532;8.722;2022-07-03T15:58:56;45.60;23.50
26589;DHT22;14235;48.532;8.722;2022-07-03T16:07:08;45.40;21.50
26589;DHT22;14235;48.532;8.722;2022-07-03T16:09:35;46.30;22.30
26589;DHT22;14235;48.532;8.722;2022-07-03T16:12:00;46.00;22.30
26589;DHT22;14235;48.532;8.722;2022-07-03T16:14:29;45.40;21.70
26589;DHT22;14235;48.532;8.722;2022-07-03T16:17:01;46.10;21.70
26589;DHT22;14235;48.532;8.722;2022-07-03T16:19:32;46.00;21.40
26589;DHT22;14235;48.532;8.722;2022-07-03T16:22:00;43.50;22.10
26589;DHT22;14235;48.532;8.722;2022-07-03T16:24:28;42.10;23.30
26589;DHT22;14235;48.532;8.722;2022-07-03T16:26:54;41.10;23.90
26589;DHT22;14235;48.532;8.722;2022-07-03T16:29:20;38.80;24.40
26589;DHT22;14235;48.532;8.722;2022-07-03T16:31:49;38.60;25.70
26589;DHT22;14235;48.532;8.722;2022-07-03T16:34:37;38.90;26.20
26589;DHT22;14235;48.532;8.722;2022-07-03T16:37:08;40.90;25.40
26589;DHT22;14235;48.532;8.722;2022-07-03T16:39:36;42.60;24.60
26589;DHT22;14235;48.532;8.722;2022-07-03T16:42:04;42.60;23.90
26589;DHT22;14235;48.532;8.722;2022-07-03T16:44:32;43.80;23.30
26589;DHT22;14235;48.532;8.722;2022-07-03T16:47:02;42.10;24.40
26589;DHT22;14235;48.532;8.722;2022-07-03T16:49:33;40.80;25.80
26589;DHT22;14235;48.532;8.722;2022-07-03T16:52:04;39.60;25.80
26589;DHT22;14235;48.532;8.722;2022-07-03T16:54:30;40.40;26.50
26589;DHT22;14235;48.532;8.722;2022-07-03T16:56:58;41.70;26.30
26589;DHT22;14235;48.532;8.722;2022-07-03T16:59:24;42.10;25.00
26589;DHT22;14235;48.532;8.722;2022-07-03T17:01:52;41.10;27.00
26589;DHT22;14235;48.532;8.722;2022-07-03T17:04:19;39.20;32.70
26589;DHT22;14235;48.532;8.722;2022-07-03T17:06:46;36.30;28.70
26589;DHT22;14235;48.532;8.722;2022-07-03T17:09:11;35.80;30.00
26589;DHT22;14235;48.532;8.722;2022-07-03T17:11:40;34.60;32.80
26589;DHT22;14235;48.532;8.722;2022-07-03T17:14:07;33.80;31.40
26589;DHT22;14235;48.532;8.722;2022-07-03T17:16:39;33.20;33.50
26589;DHT22;14235;48.532;8.722;2022-07-03T17:19:08;32.70;34.60
26589;DHT22;14235;48.532;8.722;2022-07-03T17:21:40;32.00;36.80
26589;DHT22;14235;48.532;8.722;2022-07-03T17:24:09;31.90;36.40
26589;DHT22;14235;48.532;8.722;2022-07-03T17:26:40;31.50;36.90
26589;DHT22;14235;48.532;8.722;2022-07-03T17:29:15;31.50;38.90
26589;DHT22;14235;48.532;8.722;2022-07-03T17:31:42;31.30;37.70
26589;DHT22;14235;48.532;8.722;2022-07-03T17:34:10;31.10;38.00
26589;DHT22;14235;48.532;8.722;2022-07-03T17:36:36;31.00;38.40
26589;DHT22;14235;48.532;8.722;2022-07-03T17:39:03;30.90;37.70
26589;DHT22;14235;48.532;8.722;2022-07-03T17:41:30;31.00;38.40
26589;DHT22;14235;48.532;8.722;2022-07-03T17:43:56;30.70;39.40
26589;DHT22;14235;48.532;8.722;2022-07-03T17:46:23;30.60;40.90
26589;DHT22;14235;48.532;8.722;2022-07-03T17:48:51;30.80;40.80
26589;DHT22;14235;48.532;8.722;2022-07-03T17:51:17;30.70;41.80
26589;DHT22;14235;48.532;8.722;2022-07-03T17:53:45;30.80;41.80
26589;DHT22;14235;48.532;8.722;2022-07-03T17:56:12;30.80;41.40
26589;DHT22;14235;48.532;8.722;2022-07-03T17:58:46;30.70;43.20
26589;DHT22;14235;48.532;8.722;2022-07-03T18:01:14;30.80;45.10
26589;DHT22;14235;48.532;8.722;2022-07-03T18:03:40;30.80;44.60
26589;DHT22;14235;48.532;8.722;2022-07-03T18:06:08;30.50;44.90
26589;DHT22;14235;48.532;8.722;2022-07-03T18:14:34;30.10;44.40
26589;DHT22;14235;48.532;8.722;2022-07-03T18:17:09;29.80;44.50
26589;DHT22;14235;48.532;8.722;2022-07-03T18:19:35;29.60;48.10
26589;DHT22;14235;48.532;8.722;2022-07-03T18:26:56;29.10;47.00
26589;DHT22;14235;48.532;8.722;2022-07-03T18:29:29;29.00;48.30
26589;DHT22;14235;48.532;8.722;2022-07-03T18:31:58;28.80;49.50
26589;DHT22;14235;48.532;8.722;2022-07-03T18:34:26;28.70;49.40
26589;DHT22;14235;48.532;8.722;2022-07-03T18:36:53;28.60;50.50
26589;DHT22;14235;48.532;8.722;2022-07-03T18:39:19;28.30;50.90
26589;DHT22;14235;48.532;8.722;2022-07-03T18:41:46;28.30;51.40
26589;DHT22;14235;48.532;8.722;2022-07-03T18:44:12;28.00;52.30
26589;DHT22;14235;48.532;8.722;2022-07-03T18:46:38;27.60;53.40
26589;DHT22;14235;48.532;8.722;2022-07-03T18:49:08;27.40;55.40
26589;DHT22;14235;48.532;8.722;2022-07-03T18:54:44;27.00;56.80
26589;DHT22;14235;48.532;8.722;2022-07-03T18:57:17;27.00;56.00
26589;DHT22;14235;48.532;8.722;2022-07-03T19:00:09;26.80;57.20
26589;DHT22;14235;48.532;8.722;2022-07-03T19:05:15;26.50;58.80
26589;DHT22;14235;48.532;8.722;2022-07-03T19:08:02;26.40;59.30
26589;DHT22;14235;48.532;8.722;2022-07-03T19:10:29;26.40;59.60
26589;DHT22;14235;48.532;8.722;2022-07-03T19:13:05;26.00;63.10
26589;DHT22;14235;48.532;8.722;2022-07-03T19:15:34;25.70;72.30
26589;DHT22;14235;48.532;8.722;2022-07-03T19:18:01;25.80;64.00
26589;DHT22;14235;48.532;8.722;2022-07-03T19:20:27;25.70;64.50
26589;DHT22;14235;48.532;8.722;2022-07-03T19:22:53;25.60;65.10